Time;durP1;ratioP1;P1;durP2;ratioP2;P2;SDS_P1;SDS_P2;PMS_P1;PMS_P2;Temp;Humidity;BMP_temperature;BMP_pressure;BME280_temperature;BME280_humidity;BME280_pressure;Samples;Min_cycle;Max_cycle;Signal;HPM_P1;HPM_P2
2021/12/18 00:01:32;;;;;;;6.18;5.55;;;6.60;99.90;;;;;;5018606;28;20197;-64
2021/12/18 00:04:01;;;;;;;6.28;5.68;;;6.40;99.90;;;;;;5017472;28;20300;-63
2021/12/18 00:06:30;;;;;;;6.88;6.28;;;6.50;99.90;;;;;;5015669;28;20203;-64
2021/12/18 00:08:58;;;;;;;8.35;6.05;;;6.50;99.90;;;;;;5016524;28;20198;-63
2021/12/18 00:11:27;;;;;;;8.80;6.03;;;6.50;99.90;;;;;;5019337;28;20217;-64
2021/12/18 00:13:56;;;;;;;6.65;6.05;;;6.50;99.90;;;;;;5024817;28;20345;-63
2021/12/18 00:16:25;;;;;;;6.20;5.45;;;6.50;99.90;;;;;;5018353;28;20212;-62
2021/12/18 00:18:55;;;;;;;7.13;6.00;;;6.60;99.90;;;;;;5017852;28;20280;-62
2021/12/18 00:21:23;;;;;;;6.18;5.68;;;6.50;99.90;;;;;;5017167;28;20240;-62
2021/12/18 00:23:51;;;;;;;6.00;5.40;;;6.50;99.90;;;;;;5019804;28;20279;-63
2021/12/18 00:26:21;;;;;;;6.68;6.00;;;6.40;99.90;;;;;;5036264;28;20201;-62
2021/12/18 00:28:49;;;;;;;7.75;6.22;;;6.40;99.90;;;;;;5023157;28;20205;-62
2021/12/18 00:31:18;;;;;;;6.75;6.15;;;6.50;99.90;;;;;;5014667;28;20304;-62
2021/12/18 00:33:46;;;;;;;7.22;6.40;;;6.40;99.90;;;;;;5013711;28;20201;-65
2021/12/18 00:36:14;;;;;;;6.68;6.10;;;6.50;99.90;;;;;;5014681;28;20193;-64
2021/12/18 00:38:42;;;;;;;6.60;5.80;;;6.40;99.90;;;;;;5014784;28;20674;-64
2021/12/18 00:41:27;;;;;;;7.40;6.32;;;6.50;99.90;;;;;;5033587;28;20188;-64
2021/12/18 00:44:04;;;;;;;7.57;6.45;;;6.50;99.90;;;;;;5033772;28;20239;-64
2021/12/18 00:46:36;;;;;;;7.10;6.40;;;6.50;99.90;;;;;;5033433;28;20287;-64
2021/12/18 00:49:06;;;;;;;7.63;6.78;;;6.50;99.90;;;;;;5016580;28;20224;-64
2021/12/18 00:51:35;;;;;;;8.40;6.30;;;6.60;99.90;;;;;;5013306;28;20263;-64
2021/12/18 00:54:03;;;;;;;5.97;5.47;;;6.60;99.90;;;;;;5013965;28;20241;-64
2021/12/18 00:56:32;;;;;;;5.85;5.35;;;6.40;99.90;;;;;;5013988;28;20201;-63
2021/12/18 00:59:00;;;;;;;7.50;5.63;;;6.20;99.90;;;;;;5017689;28;20240;-63
2021/12/18 01:01:28;;;;;;;6.50;5.88;;;6.20;99.90;;;;;;5013571;28;20284;-63
2021/12/18 01:03:58;;;;;;;6.68;6.07;;;6.00;99.90;;;;;;5029602;28;20298;-64
2021/12/18 01:06:27;;;;;;;7.60;6.07;;;6.00;99.90;;;;;;5033360;28;20192;-64
2021/12/18 01:08:57;;;;;;;5.60;5.15;;;6.10;99.90;;;;;;5032763;28;20652;-64
2021/12/18 01:11:41;;;;;;;7.10;6.40;;;6.20;99.90;;;;;;5032623;28;20220;-64
2021/12/18 01:22:40;;;;;;;6.25;5.65;;;6.20;99.90;;;;;;5028308;28;20200;-64
2021/12/18 01:22:50;;;;;;;7.15;5.85;;;6.00;99.90;;;;;;5016702;28;20198;-63
2021/12/18 01:25:20;;;;;;;6.72;6.07;;;6.00;99.90;;;;;;5017133;28;20241;-63
2021/12/18 01:27:48;;;;;;;7.05;6.45;;;6.00;99.90;;;;;;5017366;28;20198;-63
2021/12/18 01:30:17;;;;;;;7.00;6.30;;;6.00;99.90;;;;;;5017654;28;20201;-63
2021/12/18 01:32:45;;;;;;;6.63;5.75;;;6.10;99.90;;;;;;5013819;28;20230;-63
2021/12/18 01:35:14;;;;;;;7.30;6.55;;;6.00;99.90;;;;;;4997583;28;20288;-63
2021/12/18 01:37:43;;;;;;;6.65;6.03;;;5.90;99.90;;;;;;4997419;28;20253;-63
2021/12/18 01:40:12;;;;;;;7.22;6.63;;;5.80;99.90;;;;;;4997960;28;20213;-63
2021/12/18 01:45:29;;;;;;;6.78;6.15;;;5.80;99.90;;;;;;4997070;28;20234;-63
2021/12/18 01:53:27;;;;;;;7.78;7.05;;;5.70;99.90;;;;;;5034480;28;20251;-63
2021/12/18 01:55:55;;;;;;;6.65;6.05;;;5.70;99.90;;;;;;5034545;28;20286;-64
2021/12/18 01:58:25;;;;;;;7.30;6.70;;;5.80;99.90;;;;;;5025877;28;20209;-63
2021/12/18 02:00:55;;;;;;;8.30;7.53;;;5.80;99.90;;;;;;5013598;28;20300;-63
2021/12/18 02:03:23;;;;;;;7.63;6.65;;;5.90;99.90;;;;;;5027259;28;20291;-63
2021/12/18 02:05:53;;;;;;;7.57;6.70;;;5.90;99.90;;;;;;5032662;28;20240;-63
2021/12/18 02:08:22;;;;;;;7.38;6.53;;;5.70;99.90;;;;;;5033933;28;20275;-63
2021/12/18 02:10:55;;;;;;;8.10;6.85;;;5.50;99.90;;;;;;5034118;28;20681;-63
2021/12/18 02:13:37;;;;;;;9.02;7.50;;;5.40;99.90;;;;;;5032679;28;20237;-63
2021/12/18 02:21:38;;;;;;;9.85;8.05;;;5.30;99.90;;;;;;5032845;28;20231;-63
2021/12/18 02:24:07;;;;;;;7.55;6.85;;;5.30;99.90;;;;;;5029436;28;20240;-63
2021/12/18 02:26:35;;;;;;;8.55;7.75;;;5.20;99.90;;;;;;5018296;28;20689;-63
2021/12/18 02:29:05;;;;;;;8.65;7.75;;;5.20;99.90;;;;;;5019551;28;20259;-63
2021/12/18 02:31:33;;;;;;;11.30;7.75;;;5.30;99.90;;;;;;5016451;28;20212;-62
2021/12/18 02:36:48;;;;;;;9.60;8.15;;;5.50;99.90;;;;;;4889052;29;20284;-63
2021/12/18 02:39:25;;;;;;;9.20;8.30;;;5.50;99.90;;;;;;4892581;29;20197;-64
2021/12/18 02:42:08;;;;;;;9.65;8.75;;;5.40;99.90;;;;;;4896180;29;20240;-64
2021/12/18 02:44:39;;;;;;;9.73;8.75;;;5.40;99.90;;;;;;4895878;29;20232;-64
2021/12/18 02:47:08;;;;;;;9.38;8.48;;;5.10;99.90;;;;;;4896170;29;20198;-64
2021/12/18 02:49:36;;;;;;;10.50;9.50;;;4.90;99.90;;;;;;4896134;29;20229;-63
2021/12/18 02:52:05;;;;;;;10.00;8.75;;;4.90;99.90;;;;;;4895780;29;20759;-63
2021/12/18 02:54:33;;;;;;;12.20;11.00;;;4.70;99.90;;;;;;4896003;29;20674;-64
2021/12/18 02:57:01;;;;;;;11.75;10.55;;;4.60;99.90;;;;;;4896166;29;20260;-63
2021/12/18 02:59:29;;;;;;;11.65;10.50;;;4.50;99.90;;;;;;4895744;29;20260;-64
2021/12/18 03:02:02;;;;;;;12.68;11.48;;;4.30;99.90;;;;;;4896036;29;20261;-64
2021/12/18 03:04:34;;;;;;;13.88;11.88;;;4.30;99.90;;;;;;4896163;29;20313;-64
2021/12/18 03:07:05;;;;;;;12.07;10.93;;;4.40;99.90;;;;;;4895973;29;20204;-65
2021/12/18 03:23:43;;;;;;;14.43;13.02;;;4.30;99.90;;;;;;4915057;29;20291;-64
2021/12/18 03:26:14;;;;;;;11.73;10.60;;;4.10;99.90;;;;;;4914858;29;20259;-63
2021/12/18 03:28:42;;;;;;;15.55;13.95;;;4.30;99.90;;;;;;4902826;29;20232;-63
2021/12/18 03:31:10;;;;;;;15.07;13.57;;;4.30;99.90;;;;;;4904027;29;20233;-63
2021/12/18 03:33:39;;;;;;;15.07;13.52;;;4.10;99.90;;;;;;4918003;29;20259;-63
2021/12/18 03:36:07;;;;;;;16.35;14.65;;;4.20;99.90;;;;;;4917785;29;20339;-64
2021/12/18 03:38:35;;;;;;;15.13;12.88;;;4.40;99.90;;;;;;4917946;29;20201;-64
2021/12/18 03:41:03;;;;;;;15.45;13.93;;;4.30;99.90;;;;;;4917784;29;20228;-64
2021/12/18 03:43:32;;;;;;;16.52;14.93;;;4.40;99.90;;;;;;4917483;29;20541;-64
2021/12/18 03:46:00;;;;;;;16.90;15.10;;;4.40;99.90;;;;;;4917882;29;20271;-64
2021/12/18 03:48:28;;;;;;;17.90;16.00;;;4.50;99.90;;;;;;4917907;29;20252;-64
2021/12/18 03:50:56;;;;;;;17.98;15.77;;;4.40;99.90;;;;;;4917683;29;20201;-64
2021/12/18 03:53:24;;;;;;;17.77;15.85;;;4.60;99.90;;;;;;4917672;29;20213;-64
2021/12/18 03:55:52;;;;;;;18.05;16.05;;;4.50;99.90;;;;;;4917846;29;20256;-63
2021/12/18 03:58:20;;;;;;;19.27;16.92;;;4.40;99.90;;;;;;4909599;29;20288;-63
2021/12/18 04:00:49;;;;;;;19.98;17.77;;;4.50;99.90;;;;;;4898598;29;20678;-63
2021/12/18 04:03:17;;;;;;;17.98;15.63;;;4.60;99.90;;;;;;4898746;29;20284;-63
2021/12/18 04:05:45;;;;;;;17.23;15.50;;;4.60;99.90;;;;;;4898696;29;20213;-63
2021/12/18 04:08:13;;;;;;;19.52;17.48;;;4.60;99.90;;;;;;4898326;29;20233;-64
2021/12/18 04:10:42;;;;;;;19.13;16.90;;;4.80;99.90;;;;;;4898480;29;20232;-62
2021/12/18 04:13:10;;;;;;;20.52;17.83;;;5.00;99.90;;;;;;4898760;29;20253;-64
2021/12/18 04:15:39;;;;;;;22.35;18.02;;;4.90;99.90;;;;;;4898595;29;20646;-63
2021/12/18 04:18:08;;;;;;;21.25;18.75;;;4.90;99.90;;;;;;4898338;29;20651;-63
2021/12/18 04:20:36;;;;;;;21.35;17.98;;;4.80;99.90;;;;;;4898337;29;20209;-64
2021/12/18 04:23:04;;;;;;;19.85;17.75;;;4.80;99.90;;;;;;4898381;29;20656;-64
2021/12/18 04:25:32;;;;;;;21.63;18.00;;;4.80;99.90;;;;;;4898470;29;20237;-63
2021/12/18 04:28:00;;;;;;;19.13;16.45;;;4.90;99.90;;;;;;4906631;29;20209;-64
2021/12/18 04:30:28;;;;;;;24.55;19.33;;;4.90;99.90;;;;;;4898076;29;20201;-64
2021/12/18 04:32:56;;;;;;;21.08;17.98;;;4.80;99.90;;;;;;4897975;29;20225;-64
2021/12/18 04:35:27;;;;;;;18.90;16.38;;;4.90;99.90;;;;;;4901369;29;20324;-64
2021/12/18 04:37:55;;;;;;;24.05;19.27;;;4.90;99.90;;;;;;4909357;29;20253;-63
2021/12/18 04:40:25;;;;;;;20.58;18.38;;;4.80;99.90;;;;;;4916881;29;20284;-65
2021/12/18 04:42:54;;;;;;;18.38;15.57;;;4.80;99.90;;;;;;4902169;29;20236;-64
2021/12/18 04:45:22;;;;;;;20.00;17.45;;;4.90;99.90;;;;;;4897975;29;20297;-64
2021/12/18 04:47:50;;;;;;;21.50;17.60;;;4.80;99.90;;;;;;4897824;29;20300;-64
2021/12/18 04:50:18;;;;;;;23.98;18.58;;;4.70;99.90;;;;;;4898254;29;20634;-64
2021/12/18 04:52:48;;;;;;;18.55;15.90;;;4.80;99.90;;;;;;4897571;29;20229;-65
2021/12/18 04:55:16;;;;;;;18.58;16.67;;;5.00;99.90;;;;;;4897860;29;20241;-64
2021/12/18 04:57:44;;;;;;;19.00;16.02;;;4.80;99.90;;;;;;4903245;29;20285;-64
2021/12/18 05:00:15;;;;;;;19.40;15.98;;;4.80;99.90;;;;;;4899861;29;20288;-63
2021/12/18 05:02:45;;;;;;;27.63;16.60;;;4.80;99.90;;;;;;4908529;29;20224;-64
2021/12/18 05:05:14;;;;;;;16.65;13.95;;;5.00;99.90;;;;;;4916445;29;20227;-64
2021/12/18 05:07:43;;;;;;;16.30;14.18;;;5.30;99.90;;;;;;4916364;29;20287;-62
2021/12/18 05:10:14;;;;;;;18.35;15.80;;;5.60;99.90;;;;;;4916272;29;20224;-64
2021/12/18 05:12:41;;;;;;;17.38;14.48;;;5.70;99.90;;;;;;4914907;29;20239;-64
2021/12/18 05:15:10;;;;;;;19.38;16.00;;;5.80;99.90;;;;;;4916210;29;20656;-64
2021/12/18 05:17:38;;;;;;;16.90;15.10;;;5.90;99.90;;;;;;4930497;29;20196;-64
2021/12/18 05:20:07;;;;;;;17.35;13.90;;;5.90;99.90;;;;;;4912393;29;20236;-64
2021/12/18 05:22:35;;;;;;;15.75;12.73;;;6.00;99.90;;;;;;4896984;29;20233;-63
2021/12/18 05:25:04;;;;;;;16.05;13.63;;;5.90;99.90;;;;;;4897190;29;20295;-64
2021/12/18 05:27:33;;;;;;;16.60;13.52;;;5.90;99.90;;;;;;4897134;29;20256;-64
2021/12/18 05:30:01;;;;;;;14.15;12.75;;;5.80;99.90;;;;;;4897180;29;20292;-64
2021/12/18 05:32:29;;;;;;;15.95;13.50;;;5.80;99.90;;;;;;4896969;29;20212;-64
2021/12/18 05:34:57;;;;;;;16.67;13.52;;;6.00;99.90;;;;;;4896683;29;20329;-64
2021/12/18 05:37:43;;;;;;;14.98;13.32;;;6.10;99.90;;;;;;4897451;29;20197;-65
2021/12/18 05:40:12;;;;;;;16.27;13.80;;;6.10;99.90;;;;;;4896973;29;20205;-64
2021/12/18 05:42:41;;;;;;;19.52;15.90;;;6.00;99.90;;;;;;4901668;29;20605;-64
2021/12/18 05:45:09;;;;;;;15.38;12.55;;;6.10;99.90;;;;;;4909596;29;20264;-65
2021/12/18 05:47:38;;;;;;;19.05;14.32;;;5.90;99.90;;;;;;4896504;29;20766;-64
2021/12/18 05:50:07;;;;;;;18.02;13.98;;;5.80;99.90;;;;;;4897199;29;20220;-63
2021/12/18 05:52:35;;;;;;;15.18;13.23;;;5.70;99.90;;;;;;4896516;29;20675;-64
2021/12/18 05:55:04;;;;;;;15.50;13.45;;;5.80;99.90;;;;;;4896511;29;20772;-64
2021/12/18 05:57:32;;;;;;;13.13;11.73;;;5.70;99.90;;;;;;4896559;29;20625;-64
2021/12/18 06:00:01;;;;;;;15.88;13.25;;;5.80;99.90;;;;;;4890716;29;20229;-64
2021/12/18 06:02:29;;;;;;;14.27;12.35;;;5.90;99.90;;;;;;4896486;29;20214;-64
2021/12/18 06:04:57;;;;;;;14.73;12.93;;;5.90;99.90;;;;;;4896478;29;20309;-64
2021/12/18 06:07:32;;;;;;;15.27;12.10;;;6.00;99.90;;;;;;4896342;29;20668;-63
2021/12/18 06:10:01;;;;;;;14.27;12.57;;;6.10;99.90;;;;;;4896701;29;20236;-64
2021/12/18 06:12:29;;;;;;;12.98;11.10;;;6.20;99.90;;;;;;4896201;29;20206;-64
2021/12/18 06:14:57;;;;;;;17.58;11.25;;;6.20;99.90;;;;;;4877582;29;20264;-64
2021/12/18 06:17:30;;;;;;;13.48;11.40;;;6.10;99.90;;;;;;4877764;29;20194;-64
2021/12/18 06:19:58;;;;;;;10.43;9.32;;;6.20;99.90;;;;;;4877715;29;20706;-62
2021/12/18 06:22:25;;;;;;;15.13;11.73;;;6.30;99.90;;;;;;4877639;29;20297;-64
2021/12/18 06:24:53;;;;;;;12.98;11.10;;;6.30;99.90;;;;;;4898317;29;20669;-64
2021/12/18 06:27:21;;;;;;;12.00;10.68;;;6.40;99.90;;;;;;4915060;29;20697;-65
2021/12/18 06:29:49;;;;;;;13.40;12.02;;;6.50;99.90;;;;;;4903169;29;20622;-63
2021/12/18 06:32:17;;;;;;;13.80;10.15;;;6.60;99.90;;;;;;4895323;29;20229;-64
2021/12/18 06:34:46;;;;;;;13.43;10.93;;;6.70;99.90;;;;;;4895798;29;20663;-65
2021/12/18 06:37:14;;;;;;;12.02;10.73;;;6.70;99.90;;;;;;4887226;29;20297;-65
2021/12/18 06:39:43;;;;;;;12.68;10.30;;;6.80;99.90;;;;;;4897148;29;20218;-65
2021/12/18 06:42:31;;;;;;;11.85;10.65;;;6.80;99.90;;;;;;4890834;29;20285;-64
2021/12/18 06:44:58;;;;;;;13.70;10.90;;;6.70;99.90;;;;;;4890600;29;20967;-64
2021/12/18 06:47:26;;;;;;;11.20;9.98;;;6.70;99.90;;;;;;4897079;29;20284;-64
2021/12/18 06:49:56;;;;;;;11.05;9.90;;;6.70;99.90;;;;;;4891328;29;20209;-64
2021/12/18 06:52:24;;;;;;;14.73;12.20;;;6.70;99.90;;;;;;4891286;29;20296;-64
2021/12/18 06:54:52;;;;;;;11.43;10.23;;;6.70;99.90;;;;;;4889364;29;20240;-64
2021/12/18 06:57:22;;;;;;;18.05;12.95;;;6.70;99.90;;;;;;4890870;29;20288;-63
2021/12/18 06:59:51;;;;;;;12.23;10.52;;;6.80;99.90;;;;;;4905070;29;20205;-64
2021/12/18 07:02:19;;;;;;;14.55;10.80;;;6.70;99.90;;;;;;4890953;29;20292;-65
2021/12/18 07:04:48;;;;;;;16.15;12.80;;;6.70;99.90;;;;;;4889975;29;20236;-64
2021/12/18 07:07:17;;;;;;;13.40;11.93;;;6.60;99.90;;;;;;4894003;29;20237;-65
2021/12/18 07:09:45;;;;;;;16.00;10.95;;;6.60;99.90;;;;;;4886988;29;20320;-64
2021/12/18 07:12:13;;;;;;;15.23;13.02;;;6.70;99.90;;;;;;4894513;29;20237;-64
2021/12/18 07:14:41;;;;;;;13.80;12.43;;;6.80;99.90;;;;;;4898080;29;20240;-64
2021/12/18 07:17:09;;;;;;;13.77;12.00;;;6.80;99.90;;;;;;4895998;29;20300;-64
2021/12/18 07:19:37;;;;;;;16.80;13.27;;;6.90;99.90;;;;;;4894500;29;20292;-64
2021/12/18 07:22:05;;;;;;;13.10;11.77;;;6.90;99.90;;;;;;4894688;29;20289;-64
2021/12/18 07:24:34;;;;;;;17.80;13.73;;;6.70;99.90;;;;;;4898005;29;20331;-64
2021/12/18 07:27:02;;;;;;;16.35;12.85;;;6.70;99.90;;;;;;4895560;29;20288;-65
2021/12/18 07:29:30;;;;;;;14.98;13.32;;;6.70;99.90;;;;;;4894158;29;20603;-64
2021/12/18 07:31:58;;;;;;;14.60;13.10;;;6.70;99.90;;;;;;4894048;29;20225;-64
2021/12/18 07:34:45;;;;;;;20.40;14.50;;;6.70;99.90;;;;;;4891324;29;20237;-64
2021/12/18 07:37:13;;;;;;;16.10;14.45;;;6.60;99.90;;;;;;4892447;29;20240;-65
2021/12/18 07:39:43;;;;;;;18.70;15.18;;;6.40;99.90;;;;;;4897398;29;20741;-66
2021/12/18 07:42:10;;;;;;;18.35;14.55;;;6.30;99.90;;;;;;4897724;29;20205;-65
2021/12/18 07:44:40;;;;;;;19.42;15.05;;;6.10;99.90;;;;;;4890618;29;20225;-65
2021/12/18 07:47:08;;;;;;;24.67;16.90;;;5.90;99.90;;;;;;4893784;29;20261;-66
2021/12/18 07:49:39;;;;;;;19.92;17.77;;;5.80;99.90;;;;;;4894129;29;20216;-65
2021/12/18 07:52:07;;;;;;;22.27;18.70;;;5.60;99.90;;;;;;4894024;29;20228;-65
2021/12/18 07:54:36;;;;;;;23.40;18.17;;;5.50;99.90;;;;;;4896342;29;20332;-67
2021/12/18 07:57:05;;;;;;;26.35;19.83;;;5.50;99.90;;;;;;4897108;29;20209;-64
2021/12/18 07:59:33;;;;;;;27.77;19.63;;;5.40;99.90;;;;;;4892623;29;20296;-65
2021/12/18 08:02:03;;;;;;;24.35;18.40;;;5.40;99.90;;;;;;4900227;29;20295;-65
2021/12/18 08:04:31;;;;;;;22.08;18.45;;;5.30;99.90;;;;;;4894159;29;20331;-65
2021/12/18 08:07:00;;;;;;;21.02;18.70;;;5.40;99.90;;;;;;4898215;29;20663;-65
2021/12/18 08:09:28;;;;;;;23.60;18.85;;;5.40;99.90;;;;;;4893149;29;20229;-65
2021/12/18 08:11:57;;;;;;;23.17;17.27;;;5.40;99.90;;;;;;4894211;29;20209;-65
2021/12/18 08:14:26;;;;;;;26.40;20.85;;;5.40;99.90;;;;;;4891971;29;20729;-66
2021/12/18 08:16:54;;;;;;;26.80;19.52;;;5.40;99.90;;;;;;4893914;29;20335;-67
2021/12/18 08:19:22;;;;;;;23.67;19.05;;;5.50;99.90;;;;;;4893264;29;20284;-68
2021/12/18 08:21:50;;;;;;;24.83;18.98;;;5.50;99.90;;;;;;4896912;29;20292;-66
2021/12/18 08:24:17;;;;;;;23.67;19.27;;;5.50;99.90;;;;;;4895520;29;20214;-65
2021/12/18 08:26:45;;;;;;;19.40;16.77;;;5.50;99.90;;;;;;4898276;29;20212;-65
2021/12/18 08:29:13;;;;;;;17.67;15.65;;;5.40;99.90;;;;;;4896543;29;20207;-65
2021/12/18 08:31:42;;;;;;;18.17;15.90;;;5.40;99.90;;;;;;4893104;29;20304;-66
2021/12/18 08:34:11;;;;;;;21.65;17.95;;;5.40;99.90;;;;;;4891730;29;20209;-65
2021/12/18 08:36:39;;;;;;;19.15;17.13;;;5.30;99.90;;;;;;4914540;23;20309;-65
2021/12/18 08:39:06;;;;;;;19.20;17.10;;;5.30;99.90;;;;;;4988276;28;20190;-65
2021/12/18 08:41:34;;;;;;;20.13;16.52;;;5.30;99.90;;;;;;5000308;28;20236;-66
2021/12/18 08:44:03;;;;;;;21.05;16.05;;;5.30;99.90;;;;;;4990896;28;20205;-65
2021/12/18 08:46:31;;;;;;;20.50;17.33;;;5.20;99.90;;;;;;4997679;28;20577;-65
2021/12/18 08:49:00;;;;;;;20.23;17.92;;;5.30;99.90;;;;;;4999645;28;20285;-66
2021/12/18 08:51:28;;;;;;;21.10;18.90;;;5.20;99.90;;;;;;4989716;28;20268;-66
2021/12/18 08:53:56;;;;;;;20.98;18.75;;;5.20;99.90;;;;;;4986572;28;20225;-65
2021/12/18 08:56:25;;;;;;;20.85;18.70;;;5.30;99.90;;;;;;4983167;28;20225;-65
2021/12/18 08:58:53;;;;;;;21.13;18.90;;;5.30;99.90;;;;;;4987172;28;20293;-66
2021/12/18 09:01:23;;;;;;;22.40;19.58;;;5.30;99.90;;;;;;4994300;28;20197;-65
2021/12/18 09:03:51;;;;;;;21.15;17.83;;;5.30;99.90;;;;;;4980496;28;20293;-65
2021/12/18 09:06:20;;;;;;;22.83;18.45;;;5.30;99.90;;;;;;4995956;28;20205;-65
2021/12/18 09:08:48;;;;;;;18.88;16.25;;;5.30;99.90;;;;;;4990987;28;20762;-65
2021/12/18 09:11:16;;;;;;;20.20;16.50;;;5.30;99.90;;;;;;4992741;28;20276;-64
2021/12/18 09:13:44;;;;;;;19.63;16.75;;;5.30;99.90;;;;;;4991300;28;20210;-65
2021/12/18 09:16:18;;;;;;;16.63;14.55;;;5.30;99.90;;;;;;4992040;28;20213;-65
2021/12/18 09:18:46;;;;;;;16.00;14.00;;;5.40;99.90;;;;;;4992928;28;20218;-65
2021/12/18 09:21:14;;;;;;;17.02;14.82;;;5.30;99.90;;;;;;4991678;28;20201;-65
2021/12/18 09:23:43;;;;;;;15.05;13.43;;;5.30;99.90;;;;;;4993096;28;20693;-65
2021/12/18 09:26:11;;;;;;;17.40;14.20;;;5.30;99.90;;;;;;4992491;28;20281;-65
2021/12/18 09:28:39;;;;;;;13.95;12.55;;;5.20;99.90;;;;;;4995010;28;20902;-65
2021/12/18 09:31:07;;;;;;;13.55;12.15;;;5.20;99.90;;;;;;5003597;28;20288;-65
2021/12/18 09:33:34;;;;;;;17.33;14.73;;;5.10;99.90;;;;;;5012451;28;20267;-65
2021/12/18 09:36:03;;;;;;;16.25;14.65;;;5.10;99.90;;;;;;5012130;28;20653;-65
2021/12/18 09:38:31;;;;;;;17.30;13.70;;;5.10;99.90;;;;;;5011994;28;20273;-65
2021/12/18 09:41:00;;;;;;;16.45;14.20;;;5.20;99.90;;;;;;4994937;28;20679;-66
2021/12/18 09:43:29;;;;;;;17.73;14.27;;;5.20;99.90;;;;;;4992385;28;20224;-65
2021/12/18 09:46:02;;;;;;;18.15;15.68;;;5.10;99.90;;;;;;4992796;28;20205;-65
2021/12/18 09:48:30;;;;;;;18.83;15.93;;;5.10;99.90;;;;;;4992526;28;20250;-65
2021/12/18 09:50:59;;;;;;;15.75;14.00;;;5.20;99.90;;;;;;4992548;28;20662;-65
2021/12/18 09:53:27;;;;;;;17.35;15.10;;;5.20;99.90;;;;;;4986139;28;20306;-65
2021/12/18 09:55:55;;;;;;;17.60;15.80;;;5.20;99.90;;;;;;4972754;28;20321;-66
2021/12/18 09:58:24;;;;;;;16.70;13.35;;;5.20;99.90;;;;;;4979882;28;20308;-66
2021/12/18 10:00:52;;;;;;;15.15;13.40;;;5.20;99.90;;;;;;5003407;28;20249;-68
2021/12/18 10:03:20;;;;;;;15.18;12.52;;;5.30;99.90;;;;;;4973055;28;20286;-65
2021/12/18 10:05:48;;;;;;;15.45;13.77;;;5.30;99.90;;;;;;4972722;28;20203;-65
2021/12/18 10:08:18;;;;;;;15.63;13.30;;;5.30;99.90;;;;;;4975232;28;20250;-67
2021/12/18 10:11:02;;;;;;;16.02;13.32;;;5.30;99.90;;;;;;4992245;28;20234;-67
2021/12/18 10:13:49;;;;;;;14.40;13.00;;;5.20;99.90;;;;;;4992257;28;20222;-67
2021/12/18 10:16:17;;;;;;;17.30;14.48;;;5.20;99.90;;;;;;4992318;28;20252;-67
2021/12/18 10:18:45;;;;;;;14.15;12.75;;;5.20;99.90;;;;;;4991962;28;20642;-65
2021/12/18 10:21:15;;;;;;;17.42;15.63;;;5.20;99.90;;;;;;4992046;28;20297;-68
2021/12/18 10:23:45;;;;;;;18.23;16.30;;;5.10;99.90;;;;;;4992347;28;20621;-67
2021/12/18 10:26:33;;;;;;;17.73;14.30;;;5.10;99.90;;;;;;4992325;28;20606;-65
2021/12/18 10:29:04;;;;;;;15.98;14.35;;;5.10;99.90;;;;;;4993814;28;20670;-66
2021/12/18 10:31:40;;;;;;;17.05;13.38;;;5.10;99.90;;;;;;5000114;28;20244;-65
2021/12/18 10:34:19;;;;;;;13.65;12.25;;;5.20;99.90;;;;;;4991993;28;20236;-65
2021/12/18 10:37:09;;;;;;;12.75;10.20;;;5.20;99.90;;;;;;4990775;28;20252;-65
2021/12/18 10:39:38;;;;;;;12.95;10.95;;;5.30;99.90;;;;;;4967527;28;20285;-65
2021/12/18 10:42:20;;;;;;;11.73;10.63;;;5.30;99.90;;;;;;4974257;28;20234;-65
2021/12/18 10:45:03;;;;;;;13.07;11.68;;;5.30;99.90;;;;;;4973718;28;20229;-65
2021/12/18 10:47:48;;;;;;;10.88;9.77;;;5.40;99.90;;;;;;4976365;28;20218;-65
2021/12/18 10:50:23;;;;;;;12.18;11.07;;;5.40;99.90;;;;;;4976515;28;20668;-65
2021/12/18 10:53:00;;;;;;;12.20;11.02;;;5.40;99.90;;;;;;4976366;28;20230;-66
2021/12/18 10:55:35;;;;;;;11.82;10.63;;;5.50;99.90;;;;;;4976189;28;20230;-65
2021/12/18 10:58:05;;;;;;;12.25;11.07;;;5.40;99.90;;;;;;4980064;28;20218;-66
2021/12/18 11:00:46;;;;;;;13.98;12.20;;;5.40;99.90;;;;;;4975538;28;20230;-65
2021/12/18 11:03:16;;;;;;;15.80;12.45;;;5.50;99.90;;;;;;4975775;28;20278;-65
2021/12/18 11:06:01;;;;;;;12.00;10.80;;;5.50;99.90;;;;;;4956689;29;20644;-65
2021/12/18 11:08:28;;;;;;;12.38;10.98;;;5.50;99.90;;;;;;4956761;29;20278;-65
2021/12/18 11:13:38;;;;;;;11.43;10.20;;;5.50;99.90;;;;;;4956648;29;20234;-65
2021/12/18 11:13:50;;;;;;;12.55;10.45;;;5.40;99.90;;;;;;4956548;29;20254;-65
2021/12/18 11:16:22;;;;;;;13.55;11.35;;;5.40;99.90;;;;;;4970540;28;20202;-65
2021/12/18 11:18:50;;;;;;;11.68;9.90;;;5.40;99.90;;;;;;4975773;28;20635;-65
2021/12/18 11:21:18;;;;;;;12.05;10.82;;;5.50;99.90;;;;;;4975774;28;20237;-65
2021/12/18 11:23:52;;;;;;;12.13;10.82;;;5.60;99.90;;;;;;4975630;28;20238;-65
2021/12/18 11:26:29;;;;;;;10.63;9.63;;;5.60;99.90;;;;;;4975621;28;20202;-65
2021/12/18 11:28:58;;;;;;;9.18;8.27;;;5.50;99.90;;;;;;4981698;28;20897;-65
2021/12/18 11:31:28;;;;;;;10.20;9.20;;;5.60;99.90;;;;;;4975222;28;20294;-65
2021/12/18 11:33:56;;;;;;;8.00;7.20;;;5.60;99.90;;;;;;4975454;28;20226;-65
2021/12/18 11:36:25;;;;;;;8.98;7.65;;;5.60;99.90;;;;;;4975352;28;20199;-65
2021/12/18 11:38:54;;;;;;;7.95;7.15;;;5.60;99.90;;;;;;4975351;28;20644;-65
2021/12/18 11:41:22;;;;;;;7.97;6.72;;;5.70;99.90;;;;;;4975343;28;20238;-65
2021/12/18 11:43:50;;;;;;;6.97;6.30;;;5.80;99.90;;;;;;4975249;28;20699;-65
2021/12/18 11:46:41;;;;;;;6.35;5.53;;;5.70;99.90;;;;;;4975130;28;20286;-65
2021/12/18 11:49:11;;;;;;;7.25;6.55;;;5.80;99.90;;;;;;4970256;28;20214;-65
2021/12/18 11:51:39;;;;;;;11.85;8.98;;;5.80;99.90;;;;;;4974950;28;20668;-65
2021/12/18 11:54:41;;;;;;;9.50;8.50;;;5.70;99.90;;;;;;4975051;28;20246;-65
2021/12/18 11:57:08;;;;;;;9.60;8.18;;;5.70;99.90;;;;;;4975083;28;20261;-65
2021/12/18 11:59:41;;;;;;;8.88;7.97;;;5.60;99.90;;;;;;4980921;28;20234;-65
2021/12/18 12:02:13;;;;;;;10.05;8.32;;;5.60;99.90;;;;;;4974877;28;20234;-65
2021/12/18 12:05:01;;;;;;;9.85;8.40;;;5.70;99.90;;;;;;4974626;28;20213;-66
2021/12/18 12:07:30;;;;;;;11.55;10.00;;;5.70;99.90;;;;;;4955614;29;20258;-65
2021/12/18 12:10:21;;;;;;;11.15;9.40;;;5.60;99.90;;;;;;4955465;29;20223;-65
2021/12/18 12:12:52;;;;;;;10.95;9.85;;;5.60;99.90;;;;;;4969518;28;20237;-65
2021/12/18 12:15:21;;;;;;;12.77;9.63;;;5.60;99.90;;;;;;4974935;28;20237;-65
2021/12/18 12:18:01;;;;;;;12.27;9.73;;;5.70;99.90;;;;;;4974632;28;20634;-65
2021/12/18 12:20:36;;;;;;;12.25;10.77;;;5.60;99.90;;;;;;4974398;28;20198;-65
2021/12/18 12:23:05;;;;;;;10.50;9.40;;;5.60;99.90;;;;;;4974377;28;20198;-65
2021/12/18 12:25:44;;;;;;;11.60;10.40;;;5.60;99.90;;;;;;4974278;28;20229;-65
2021/12/18 12:28:15;;;;;;;10.65;9.40;;;5.60;99.90;;;;;;4979674;28;20718;-65
2021/12/18 12:30:47;;;;;;;13.20;10.43;;;5.60;99.90;;;;;;4974501;28;20736;-65
2021/12/18 12:33:26;;;;;;;11.40;9.10;;;5.60;99.90;;;;;;4974367;28;20285;-65
2021/12/18 12:36:05;;;;;;;10.35;8.80;;;5.70;99.90;;;;;;4974087;28;20710;-65
2021/12/18 12:38:36;;;;;;;11.93;8.50;;;5.80;99.90;;;;;;4973903;28;20270;-65
2021/12/18 12:41:35;;;;;;;10.55;8.45;;;5.80;99.90;;;;;;4974279;28;20237;-65
2021/12/18 12:44:13;;;;;;;9.38;8.48;;;5.90;99.90;;;;;;4974086;28;20226;-66
2021/12/18 12:46:41;;;;;;;8.75;7.72;;;5.90;99.90;;;;;;4973808;28;20652;-66
2021/12/18 12:49:12;;;;;;;9.85;8.70;;;6.00;99.90;;;;;;4973794;28;20668;-65
2021/12/18 12:52:04;;;;;;;13.05;10.05;;;6.00;99.90;;;;;;4973986;28;20257;-65
2021/12/18 12:54:59;;;;;;;10.45;9.18;;;6.00;99.90;;;;;;4974219;28;20199;-67
2021/12/18 12:57:43;;;;;;;10.90;9.80;;;6.00;99.90;;;;;;4973945;28;20714;-65
2021/12/18 13:00:44;;;;;;;17.85;12.85;;;6.10;99.90;;;;;;4969520;28;20294;-65
2021/12/18 13:03:19;;;;;;;14.88;11.20;;;6.10;99.90;;;;;;4954506;29;20636;-65
2021/12/18 13:05:55;;;;;;;13.63;10.80;;;6.20;99.90;;;;;;4953935;28;20720;-64
2021/12/18 13:08:25;;;;;;;13.27;10.23;;;6.20;99.90;;;;;;4954505;29;20742;-64
2021/12/18 13:10:54;;;;;;;12.63;9.60;;;6.20;99.90;;;;;;4967728;28;20230;-65
2021/12/18 13:13:25;;;;;;;9.90;8.90;;;6.30;99.90;;;;;;4973452;28;20230;-65
2021/12/18 13:15:57;;;;;;;10.10;8.90;;;6.20;99.90;;;;;;4973453;28;20258;-66
2021/12/18 13:18:27;;;;;;;9.73;8.73;;;6.20;99.90;;;;;;4973622;28;20742;-65
2021/12/18 13:20:59;;;;;;;12.90;10.38;;;6.30;99.90;;;;;;4973738;28;20267;-64
2021/12/18 13:23:52;;;;;;;13.80;11.10;;;6.30;99.90;;;;;;4973425;28;20627;-66
2021/12/18 13:26:27;;;;;;;13.60;10.10;;;6.30;99.90;;;;;;4972927;28;20252;-64
2021/12/18 13:29:07;;;;;;;12.07;9.20;;;6.30;99.90;;;;;;4979333;28;20198;-65
2021/12/18 13:31:39;;;;;;;9.40;8.40;;;6.30;99.90;;;;;;4973456;28;20230;-65
2021/12/18 13:34:10;;;;;;;10.68;9.00;;;6.40;99.90;;;;;;4973577;28;20250;-65
2021/12/18 13:36:48;;;;;;;10.05;8.55;;;6.50;99.90;;;;;;4973098;28;20237;-65
2021/12/18 13:39:18;;;;;;;13.18;9.88;;;6.30;99.90;;;;;;4972991;28;20325;-66